createdAt,value
2022-10-18T00:00:13.739Z,10.07
2022-10-18T00:02:56.944Z,12.20
2022-10-18T00:05:40.542Z,11.93
2022-10-18T00:08:23.586Z,10.43
2022-10-18T00:11:07.172Z,16.20
2022-10-18T00:13:51.546Z,10.13
2022-10-18T00:16:34.551Z,11.17
2022-10-18T00:19:17.793Z,17.20
2022-10-18T00:22:00.757Z,13.77
2022-10-18T00:24:43.817Z,14.90
2022-10-18T00:27:26.806Z,17.27
2022-10-18T00:30:11.911Z,12.70
2022-10-18T00:32:54.905Z,11.80
2022-10-18T00:35:37.906Z,12.30
2022-10-18T00:38:20.911Z,18.83
2022-10-18T00:41:05.090Z,12.63
2022-10-18T00:43:53.352Z,11.60
2022-10-18T00:46:39.633Z,12.27
2022-10-18T00:49:25.002Z,13.60
2022-10-18T00:52:10.638Z,14.93
2022-10-18T00:54:54.930Z,17.43
2022-10-18T00:57:39.489Z,17.80
2022-10-18T01:00:22.812Z,14.00
2022-10-18T01:03:07.852Z,13.30
2022-10-18T01:05:51.134Z,12.23
2022-10-18T01:08:48.082Z,12.23
2022-10-18T01:11:49.664Z,14.60
2022-10-18T01:14:44.163Z,14.00
2022-10-18T01:17:33.252Z,16.53
2022-10-18T01:20:44.922Z,14.40
2022-10-18T01:23:45.098Z,16.93
2022-10-18T01:26:47.681Z,15.27
2022-10-18T01:29:40.257Z,15.40
2022-10-18T01:32:28.238Z,20.53
2022-10-18T01:35:16.494Z,22.13
2022-10-18T01:38:03.733Z,20.90
2022-10-18T01:40:50.591Z,27.60
2022-10-18T01:43:35.622Z,29.43
2022-10-18T01:46:23.549Z,24.90
2022-10-18T01:49:08.446Z,26.27
2022-10-18T01:51:51.450Z,23.43
2022-10-18T01:54:38.579Z,28.33
2022-10-18T01:57:30.054Z,23.93
2022-10-18T02:00:16.133Z,41.00
2022-10-18T02:03:05.488Z,32.00
2022-10-18T02:05:58.157Z,26.17
2022-10-18T02:08:48.241Z,32.37
2022-10-18T02:11:33.602Z,27.30
2022-10-18T02:14:21.455Z,25.63
2022-10-18T02:17:09.191Z,24.13
2022-10-18T02:19:56.915Z,30.93
2022-10-18T02:22:43.722Z,21.47
2022-10-18T02:25:29.926Z,19.60
2022-10-18T02:28:13.007Z,28.00
2022-10-18T02:31:04.512Z,23.73
2022-10-18T02:33:53.623Z,23.87
2022-10-18T02:36:42.234Z,24.07
2022-10-18T02:39:30.521Z,27.30
2022-10-18T02:42:14.821Z,23.17
2022-10-18T02:44:57.814Z,21.47
2022-10-18T02:47:40.853Z,24.93
2022-10-18T02:50:23.844Z,22.97
2022-10-18T02:53:06.894Z,26.07
2022-10-18T02:55:51.274Z,27.10
2022-10-18T02:58:34.232Z,27.10
2022-10-18T03:01:17.274Z,26.33
2022-10-18T03:04:00.353Z,28.50
2022-10-18T03:06:43.386Z,25.40
2022-10-18T03:09:26.567Z,26.47
2022-10-18T03:12:10.930Z,30.23
2022-10-18T03:14:53.923Z,28.63
2022-10-18T03:17:36.975Z,37.30
2022-10-18T03:20:19.974Z,29.23
2022-10-18T03:23:03.406Z,26.57
2022-10-18T03:25:46.845Z,29.87
2022-10-18T03:28:31.368Z,29.83
2022-10-18T03:31:14.446Z,24.30
2022-10-18T03:33:57.451Z,35.87
2022-10-18T03:36:41.426Z,28.83
2022-10-18T03:39:24.497Z,21.87
2022-10-18T03:42:07.448Z,29.60
2022-10-18T03:44:51.852Z,24.00
2022-10-18T03:47:35.022Z,24.30
2022-10-18T03:50:18.220Z,26.23
2022-10-18T03:53:01.220Z,24.90
2022-10-18T03:55:44.355Z,28.40
2022-10-18T03:58:27.484Z,26.63
2022-10-18T04:01:12.151Z,28.67
2022-10-18T04:03:55.204Z,31.87
2022-10-18T04:06:38.248Z,33.83
2022-10-18T04:09:21.465Z,31.63
2022-10-18T04:12:04.478Z,30.70
2022-10-18T04:14:47.484Z,40.90
2022-10-18T04:17:32.104Z,39.17
2022-10-18T04:20:15.531Z,32.30
2022-10-18T04:22:58.594Z,28.90
2022-10-18T04:28:30.847Z,32.70
2022-10-18T04:31:14.049Z,39.47
2022-10-18T04:33:58.451Z,41.13
2022-10-18T04:36:41.450Z,40.30
2022-10-18T04:39:24.480Z,30.40
2022-10-18T04:42:07.543Z,37.10
2022-10-18T04:44:50.550Z,33.10
2022-10-18T04:47:33.835Z,34.83
2022-10-18T04:50:18.646Z,36.70
2022-10-18T04:53:01.654Z,40.67
2022-10-18T04:55:46.697Z,47.57
2022-10-18T04:58:29.747Z,41.33
2022-10-18T05:01:12.941Z,46.67
2022-10-18T05:03:56.155Z,52.33
2022-10-18T05:06:40.592Z,45.53
2022-10-18T05:09:24.876Z,50.17
2022-10-18T05:12:07.863Z,54.80
2022-10-18T05:14:50.854Z,60.60
2022-10-18T05:17:33.876Z,53.83
2022-10-18T05:20:17.020Z,56.53
2022-10-18T05:23:01.411Z,58.57
2022-10-18T05:25:44.709Z,61.23
2022-10-18T05:28:39.576Z,56.93
2022-10-18T05:31:23.293Z,56.03
2022-10-18T05:34:06.336Z,48.83
2022-10-18T05:36:50.151Z,46.27
2022-10-18T05:39:34.530Z,58.00
2022-10-18T05:42:17.500Z,44.20
2022-10-18T05:45:00.473Z,42.30
2022-10-18T05:47:43.426Z,43.87
2022-10-18T05:50:26.429Z,67.73
2022-10-18T05:53:12.446Z,47.17
2022-10-18T05:56:11.882Z,52.57
2022-10-18T05:58:54.963Z,40.23
2022-10-18T06:01:38.071Z,48.83
2022-10-18T06:04:21.170Z,51.43
2022-10-18T06:07:04.657Z,46.97
2022-10-18T06:09:47.657Z,37.47
2022-10-18T06:12:32.032Z,42.23
2022-10-18T06:15:15.143Z,35.67
2022-10-18T06:17:59.593Z,35.37
2022-10-18T06:20:42.666Z,39.83
2022-10-18T06:23:25.668Z,40.80
2022-10-18T06:26:11.596Z,38.43
2022-10-18T06:28:56.071Z,48.77
2022-10-18T06:31:39.082Z,46.27
2022-10-18T06:34:22.179Z,34.27
2022-10-18T06:37:05.215Z,27.17
2022-10-18T06:39:48.189Z,38.03
2022-10-18T06:42:31.883Z,38.70
2022-10-18T06:45:18.355Z,36.90
2022-10-18T06:48:01.359Z,36.03
2022-10-18T06:50:51.507Z,31.93
2022-10-18T06:53:43.806Z,44.50
2022-10-18T06:56:31.869Z,32.53
2022-10-18T06:59:15.316Z,42.37
2022-10-18T07:01:59.759Z,43.03
2022-10-18T07:04:42.769Z,36.57
2022-10-18T07:07:25.877Z,29.07
2022-10-18T07:10:12.937Z,38.93
2022-10-18T07:13:13.676Z,34.33
2022-10-18T07:16:04.423Z,45.03
2022-10-18T07:18:50.765Z,44.17
2022-10-18T07:21:33.762Z,55.57
2022-10-18T07:24:16.959Z,52.97
2022-10-18T07:26:59.930Z,34.70
2022-10-18T07:29:42.905Z,32.27
2022-10-18T07:32:25.877Z,47.60
2022-10-18T07:37:57.474Z,45.00
2022-10-18T07:40:40.474Z,41.47
2022-10-18T07:43:23.441Z,35.70
2022-10-18T07:46:06.991Z,32.47
2022-10-18T07:48:50.396Z,35.27
2022-10-18T07:51:36.112Z,38.27
2022-10-18T07:54:19.292Z,42.80
2022-10-18T07:57:02.424Z,53.30
2022-10-18T07:59:48.056Z,41.10
2022-10-18T08:02:31.058Z,34.63
2022-10-18T08:05:14.116Z,38.23
2022-10-18T08:07:58.542Z,38.83
2022-10-18T08:10:41.520Z,31.77
2022-10-18T08:13:24.511Z,35.40
2022-10-18T08:16:09.444Z,34.40
2022-10-18T08:18:52.752Z,33.93
2022-10-18T08:21:35.707Z,24.00
2022-10-18T08:24:20.060Z,29.93
2022-10-18T08:27:03.300Z,39.07
2022-10-18T08:29:46.338Z,23.83
2022-10-18T08:32:29.592Z,22.27
2022-10-18T08:35:14.811Z,29.13
2022-10-18T08:37:57.827Z,26.47
2022-10-18T08:40:45.576Z,24.23
2022-10-18T08:43:37.317Z,24.77
2022-10-18T08:46:20.396Z,33.90
2022-10-18T08:49:04.783Z,25.87
2022-10-18T08:51:50.510Z,40.70
2022-10-18T08:54:38.855Z,30.27
2022-10-18T08:57:23.571Z,40.40
2022-10-18T09:00:15.929Z,33.27
2022-10-18T09:03:14.245Z,44.83
2022-10-18T09:06:05.737Z,35.92
2022-10-18T09:09:03.213Z,27.90
2022-10-18T09:12:01.069Z,37.90
2022-10-18T09:15:10.100Z,33.10
2022-10-18T09:18:09.042Z,28.83
2022-10-18T09:20:57.715Z,28.33
2022-10-18T09:23:48.445Z,25.60
2022-10-18T09:26:39.093Z,22.23
2022-10-18T09:29:41.369Z,30.20
2022-10-18T09:32:37.463Z,25.13
2022-10-18T09:35:24.957Z,31.20
2022-10-18T09:38:14.341Z,31.73
2022-10-18T09:41:01.299Z,25.87
2022-10-18T09:43:51.814Z,22.33
2022-10-18T09:46:39.921Z,19.13
2022-10-18T09:49:29.482Z,21.03
2022-10-18T09:52:29.355Z,14.13
2022-10-18T09:55:20.243Z,23.27
2022-10-18T09:58:08.665Z,11.07
2022-10-18T10:00:54.010Z,11.90
2022-10-18T10:03:37.111Z,16.77
2022-10-18T10:06:29.332Z,16.87
2022-10-18T10:09:17.840Z,15.33
2022-10-18T10:12:00.884Z,11.32
2022-10-18T10:14:45.455Z,12.18
2022-10-18T10:17:35.985Z,8.88
2022-10-18T10:20:22.440Z,9.38
2022-10-18T10:26:03.950Z,8.10
2022-10-18T10:28:49.099Z,9.75
2022-10-18T10:31:33.048Z,11.15
2022-10-18T10:34:21.853Z,11.00
2022-10-18T10:37:05.611Z,8.75
2022-10-18T10:40:18.363Z,13.50
2022-10-18T10:43:18.465Z,6.30
2022-10-18T10:46:11.961Z,10.70
2022-10-18T10:49:21.007Z,6.93
2022-10-18T10:52:26.829Z,9.45
2022-10-18T10:55:34.928Z,7.85
2022-10-18T10:58:19.512Z,10.25
2022-10-18T11:01:20.305Z,10.98
2022-10-18T11:04:10.764Z,7.97
2022-10-18T11:07:08.121Z,13.70
2022-10-18T11:09:59.622Z,8.55
2022-10-18T11:12:46.323Z,12.65
2022-10-18T11:15:36.453Z,9.43
2022-10-18T11:18:23.769Z,8.80
2022-10-18T11:21:11.521Z,5.18
2022-10-18T11:23:54.927Z,6.13
2022-10-18T11:26:50.005Z,7.40
2022-10-18T11:29:54.358Z,5.67
2022-10-18T11:32:46.927Z,7.83
2022-10-18T11:35:40.543Z,9.40
2022-10-18T11:38:35.941Z,10.07
2022-10-18T11:41:32.253Z,9.03
2022-10-18T11:44:23.795Z,10.60
2022-10-18T11:47:16.616Z,9.17
2022-10-18T11:50:09.672Z,7.93
2022-10-18T11:53:03.558Z,6.70
2022-10-18T11:55:57.999Z,6.60
2022-10-18T11:58:54.706Z,6.83
2022-10-18T12:01:42.341Z,12.33
2022-10-18T12:04:33.732Z,9.43
2022-10-18T12:07:23.386Z,14.57
2022-10-18T12:10:22.962Z,8.67
2022-10-18T12:13:23.055Z,7.70
2022-10-18T12:16:09.235Z,9.30
2022-10-18T12:18:55.937Z,12.93
2022-10-18T12:21:40.629Z,6.40
2022-10-18T12:24:28.751Z,7.10
2022-10-18T12:27:15.930Z,6.43
2022-10-18T12:30:04.805Z,13.20
2022-10-18T12:33:02.220Z,6.23
2022-10-18T12:36:01.617Z,6.47
2022-10-18T12:38:48.856Z,6.60
2022-10-18T12:41:33.990Z,7.23
2022-10-18T12:44:22.352Z,6.33
2022-10-18T12:47:07.582Z,6.90
2022-10-18T12:49:58.392Z,8.73
2022-10-18T12:52:42.146Z,6.90
2022-10-18T12:55:34.907Z,6.70
2022-10-18T12:58:28.417Z,9.67
2022-10-18T13:01:11.489Z,6.53
2022-10-18T13:03:58.687Z,15.37
2022-10-18T13:07:18.153Z,6.40
2022-10-18T13:10:40.539Z,6.50
2022-10-18T13:13:50.700Z,6.90
2022-10-18T13:16:43.461Z,8.87
2022-10-18T13:19:33.095Z,10.63
2022-10-18T13:22:30.595Z,10.67
2022-10-18T13:25:22.641Z,10.23
2022-10-18T13:28:22.761Z,7.83
2022-10-18T13:31:20.392Z,8.03
2022-10-18T13:34:25.205Z,7.67
2022-10-18T13:37:23.861Z,7.57
2022-10-18T13:40:23.855Z,11.83
2022-10-18T13:43:40.074Z,6.90
2022-10-18T13:46:26.075Z,8.00
2022-10-18T13:49:31.874Z,6.67
2022-10-18T13:52:25.960Z,9.60
2022-10-18T13:55:33.255Z,11.43
2022-10-18T13:58:23.539Z,7.63
2022-10-18T14:01:20.357Z,7.40
2022-10-18T14:04:27.832Z,7.43
2022-10-18T14:07:12.976Z,11.87
2022-10-18T14:10:01.814Z,7.63
2022-10-18T14:12:54.733Z,7.33
2022-10-18T14:15:40.802Z,7.10
2022-10-18T14:18:31.821Z,6.57
2022-10-18T14:21:28.759Z,7.47
2022-10-18T14:24:22.512Z,6.67
2022-10-18T14:27:14.039Z,8.30
2022-10-18T14:30:15.997Z,7.30
2022-10-18T14:32:59.648Z,12.90
2022-10-18T14:35:42.745Z,9.57
2022-10-18T14:38:27.307Z,7.40
2022-10-18T14:41:17.136Z,11.90
2022-10-18T14:44:19.438Z,11.67
2022-10-18T14:47:04.493Z,8.10
2022-10-18T14:49:47.774Z,11.33
2022-10-18T14:52:35.693Z,13.53
2022-10-18T14:55:24.654Z,13.63
2022-10-18T14:58:15.591Z,9.67
2022-10-18T15:00:59.708Z,9.93
2022-10-18T15:03:42.856Z,19.17
2022-10-18T15:06:26.410Z,10.33
2022-10-18T15:09:12.464Z,13.97
2022-10-18T15:11:58.053Z,17.00
2022-10-18T15:14:42.353Z,15.40
2022-10-18T15:17:27.491Z,15.83
2022-10-18T15:20:21.964Z,15.47
2022-10-18T15:23:23.293Z,18.63
2022-10-18T15:26:09.229Z,24.63
2022-10-18T15:28:58.703Z,19.20
2022-10-18T15:31:44.565Z,23.03
2022-10-18T15:34:28.566Z,21.30
2022-10-18T15:37:29.524Z,20.67
2022-10-18T15:40:34.817Z,21.23
2022-10-18T15:43:40.046Z,22.10
2022-10-18T15:46:33.505Z,24.80
2022-10-18T15:49:56.793Z,21.57
2022-10-18T15:52:41.707Z,22.50
2022-10-18T15:55:48.606Z,29.97
2022-10-18T15:58:39.175Z,55.73
2022-10-18T16:01:28.214Z,27.03
2022-10-18T16:04:19.748Z,16.03
2022-10-18T16:07:02.866Z,14.93
2022-10-18T16:09:45.898Z,26.20
2022-10-18T16:12:28.935Z,19.80
2022-10-18T16:15:12.114Z,15.43
2022-10-18T16:17:55.098Z,16.57
2022-10-18T16:20:39.569Z,16.70
2022-10-18T16:23:24.334Z,15.87
2022-10-18T16:26:07.294Z,17.70
2022-10-18T16:28:50.999Z,16.80
2022-10-18T16:31:35.487Z,18.07
2022-10-18T16:34:18.634Z,20.87
2022-10-18T16:37:03.058Z,18.70
2022-10-18T16:39:46.062Z,19.03
2022-10-18T16:42:29.100Z,21.00
2022-10-18T16:45:12.118Z,30.90
2022-10-18T16:47:55.125Z,19.80
2022-10-18T16:50:38.130Z,29.93
2022-10-18T16:53:24.123Z,18.57
2022-10-18T16:56:12.946Z,20.73
2022-10-18T16:58:56.773Z,20.70
2022-10-18T17:01:39.822Z,21.07
2022-10-18T17:04:22.852Z,16.33
2022-10-18T17:07:06.053Z,16.67
2022-10-18T17:09:50.474Z,19.27
2022-10-18T17:12:33.754Z,19.43
2022-10-18T17:15:16.950Z,16.90
2022-10-18T17:18:01.182Z,19.93
2022-10-18T17:20:45.086Z,17.77
2022-10-18T17:23:28.099Z,12.73
2022-10-18T17:26:28.381Z,15.13
2022-10-18T17:29:12.300Z,15.90
2022-10-18T17:31:55.426Z,15.50
2022-10-18T17:34:38.620Z,12.13
2022-10-18T17:37:21.776Z,19.60
2022-10-18T17:40:05.424Z,13.83
2022-10-18T17:42:49.825Z,21.50
2022-10-18T17:45:32.864Z,15.27
2022-10-18T17:48:15.905Z,16.53
2022-10-18T17:50:59.227Z,13.57
2022-10-18T17:53:42.219Z,13.13
2022-10-18T17:56:27.194Z,15.47
2022-10-18T17:59:11.547Z,15.63
2022-10-18T18:01:54.566Z,15.67
2022-10-18T18:04:37.618Z,16.53
2022-10-18T18:07:20.648Z,13.07
2022-10-18T18:10:03.709Z,14.57
2022-10-18T18:12:46.861Z,16.50
2022-10-18T18:15:31.342Z,15.87
2022-10-18T18:18:14.354Z,14.00
2022-10-18T18:20:57.404Z,12.73
2022-10-18T18:23:40.631Z,10.27
2022-10-18T18:26:23.962Z,14.23
2022-10-18T18:29:07.030Z,12.63
2022-10-18T18:31:51.914Z,17.60
2022-10-18T18:34:36.680Z,15.33
2022-10-18T18:37:19.741Z,15.67
2022-10-18T18:40:02.744Z,16.20
2022-10-18T18:42:56.781Z,14.10
2022-10-18T18:45:52.740Z,10.60
2022-10-18T18:48:38.175Z,22.93
2022-10-18T18:51:24.462Z,13.33
2022-10-18T18:54:08.334Z,13.10
2022-10-18T18:56:51.357Z,30.50
2022-10-18T18:59:34.426Z,25.93
2022-10-18T19:02:17.427Z,26.53
2022-10-18T19:05:01.831Z,18.43
2022-10-18T19:07:44.806Z,17.00
2022-10-18T19:10:28.116Z,15.93
2022-10-18T19:13:11.970Z,22.63
2022-10-18T19:16:12.143Z,27.47
2022-10-18T19:18:59.936Z,25.83
2022-10-18T19:21:46.189Z,22.63
2022-10-18T19:24:31.093Z,28.40
2022-10-18T19:27:14.119Z,29.83
2022-10-18T19:29:57.086Z,31.20
2022-10-18T19:32:40.166Z,23.07
2022-10-18T19:35:23.219Z,25.47
2022-10-18T19:38:07.993Z,34.90
2022-10-18T19:40:53.754Z,31.00
2022-10-18T19:43:37.274Z,30.20
2022-10-18T19:46:20.335Z,39.27
2022-10-18T19:49:03.409Z,30.40
2022-10-18T19:51:46.849Z,38.30
2022-10-18T19:54:31.224Z,33.77
2022-10-18T19:57:14.261Z,31.53
2022-10-18T19:59:57.825Z,32.43
2022-10-18T20:02:41.389Z,32.33
2022-10-18T20:05:24.494Z,26.87
2022-10-18T20:08:07.543Z,39.80
2022-10-18T20:10:52.301Z,41.33
2022-10-18T20:13:36.031Z,27.07
2022-10-18T20:16:25.513Z,29.20
2022-10-18T20:19:11.934Z,24.03
2022-10-18T20:21:57.698Z,26.03
2022-10-18T20:24:40.700Z,28.10
2022-10-18T20:27:25.109Z,31.00
2022-10-18T20:30:11.260Z,25.03
2022-10-18T20:32:54.931Z,25.10
2022-10-18T20:35:37.965Z,26.97
2022-10-18T20:38:21.013Z,32.27
2022-10-18T20:41:06.057Z,18.27
2022-10-18T20:43:53.681Z,17.30
2022-10-18T20:46:38.219Z,13.17
2022-10-18T20:49:21.267Z,12.40
2022-10-18T20:52:04.338Z,13.33
2022-10-18T20:54:47.348Z,8.50
2022-10-18T20:57:34.194Z,14.50
2022-10-18T21:00:21.038Z,10.93
2022-10-18T21:03:04.600Z,12.27
2022-10-18T21:05:47.626Z,13.97
2022-10-18T21:08:30.725Z,10.77
2022-10-18T21:11:14.738Z,9.87
2022-10-18T21:14:00.292Z,13.00
2022-10-18T21:16:44.934Z,13.60
2022-10-18T21:19:28.235Z,11.07
2022-10-18T21:22:11.222Z,11.03
2022-10-18T21:24:54.171Z,13.27
2022-10-18T21:27:37.316Z,17.07
2022-10-18T21:30:20.278Z,11.33
2022-10-18T21:33:07.064Z,12.37
2022-10-18T21:35:50.036Z,12.33
2022-10-18T21:38:33.034Z,14.63
2022-10-18T21:41:17.910Z,15.13
2022-10-18T21:44:03.484Z,14.30
2022-10-18T21:46:48.580Z,17.00
2022-10-18T21:49:35.240Z,16.17
2022-10-18T21:52:18.234Z,11.77
2022-10-18T21:55:01.232Z,12.10
2022-10-18T21:57:44.239Z,13.80
2022-10-18T22:00:27.233Z,15.00
2022-10-18T22:03:10.729Z,16.43
2022-10-18T22:06:01.333Z,12.97
2022-10-18T22:08:46.563Z,13.33
2022-10-18T22:11:31.733Z,15.50
2022-10-18T22:14:14.947Z,15.90
2022-10-18T22:16:57.926Z,17.00
2022-10-18T22:19:40.921Z,22.60
2022-10-18T22:22:25.382Z,21.40
2022-10-18T22:25:09.202Z,14.83
2022-10-18T22:27:52.222Z,13.20
2022-10-18T22:30:38.063Z,13.90
2022-10-18T22:33:21.094Z,15.87
2022-10-18T22:36:04.134Z,17.63
2022-10-18T22:38:48.486Z,14.57
2022-10-18T22:41:31.475Z,18.13
2022-10-18T22:44:16.082Z,17.70
2022-10-18T22:46:59.104Z,15.93
2022-10-18T22:49:42.124Z,20.80
2022-10-18T22:52:25.130Z,17.23
2022-10-18T22:55:10.028Z,18.27
2022-10-18T22:57:53.084Z,22.07
2022-10-18T23:03:24.079Z,18.07
2022-10-18T23:06:19.753Z,18.57
2022-10-18T23:09:05.515Z,20.60
2022-10-18T23:11:51.170Z,17.77
2022-10-18T23:14:34.142Z,15.97
2022-10-18T23:17:17.228Z,20.83
2022-10-18T23:20:00.287Z,20.37
2022-10-18T23:22:43.361Z,18.40
2022-10-18T23:25:27.236Z,19.07
2022-10-18T23:28:11.675Z,21.27
2022-10-18T23:30:54.650Z,16.53
2022-10-18T23:33:37.977Z,23.40
2022-10-18T23:36:21.590Z,18.47
2022-10-18T23:39:06.282Z,25.60
2022-10-18T23:41:49.270Z,17.93
2022-10-18T23:44:33.676Z,19.23
2022-10-18T23:47:17.138Z,20.83
2022-10-18T23:50:00.135Z,18.10
2022-10-18T23:52:43.163Z,26.43
2022-10-18T23:55:26.311Z,26.40
2022-10-18T23:58:09.324Z,23.87
